sensor_id;sensor_type;location;lat;lon;timestamp;pressure;altitude;pressure_sealevel;temperature;humidity
20628;BME280;10473;42.734;24.258;2023-02-19T00:01:30;92066.50;;;5.94;63.60
20628;BME280;10473;42.734;24.258;2023-02-19T00:03:59;92059.78;;;6.08;63.72
20628;BME280;10473;42.734;24.258;2023-02-19T00:06:29;92063.31;;;6.00;64.75
20628;BME280;10473;42.734;24.258;2023-02-19T00:08:58;92050.53;;;5.87;64.35
20628;BME280;10473;42.734;24.258;2023-02-19T00:11:28;92038.25;;;5.91;64.59
20628;BME280;10473;42.734;24.258;2023-02-19T00:13:58;92046.78;;;6.00;64.07
20628;BME280;10473;42.734;24.258;2023-02-19T00:16:27;92057.25;;;6.12;64.07
20628;BME280;10473;42.734;24.258;2023-02-19T00:18:56;92045.66;;;6.01;63.64
20628;BME280;10473;42.734;24.258;2023-02-19T00:21:24;92054.44;;;5.93;65.09
20628;BME280;10473;42.734;24.258;2023-02-19T00:23:54;92048.84;;;6.06;63.93
20628;BME280;10473;42.734;24.258;2023-02-19T00:26:22;92046.41;;;6.13;62.92
20628;BME280;10473;42.734;24.258;2023-02-19T00:28:52;92040.75;;;5.99;63.68
20628;BME280;10473;42.734;24.258;2023-02-19T00:31:22;92042.84;;;5.94;63.75
20628;BME280;10473;42.734;24.258;2023-02-19T00:33:52;92052.28;;;5.83;64.88
20628;BME280;10473;42.734;24.258;2023-02-19T00:36:25;92049.06;;;6.01;64.12
20628;BME280;10473;42.734;24.258;2023-02-19T00:38:54;92040.78;;;5.87;64.65
20628;BME280;10473;42.734;24.258;2023-02-19T00:41:22;92048.09;;;5.94;64.41
20628;BME280;10473;42.734;24.258;2023-02-19T00:43:54;92049.34;;;6.12;65.13
20628;BME280;10473;42.734;24.258;2023-02-19T00:46:23;92025.53;;;5.69;66.13
20628;BME280;10473;42.734;24.258;2023-02-19T00:48:51;92039.44;;;5.93;64.65
20628;BME280;10473;42.734;24.258;2023-02-19T00:51:20;92042.31;;;5.88;64.74
20628;BME280;10473;42.734;24.258;2023-02-19T00:53:48;92021.16;;;5.73;64.91
20628;BME280;10473;42.734;24.258;2023-02-19T00:56:16;92027.72;;;5.91;64.19
20628;BME280;10473;42.734;24.258;2023-02-19T00:58:45;92034.59;;;5.95;64.33
20628;BME280;10473;42.734;24.258;2023-02-19T01:01:15;92032.84;;;5.99;64.47
20628;BME280;10473;42.734;24.258;2023-02-19T01:03:44;92021.81;;;5.94;64.65
20628;BME280;10473;42.734;24.258;2023-02-19T01:06:14;92013.28;;;5.85;65.02
20628;BME280;10473;42.734;24.258;2023-02-19T01:08:43;92018.72;;;6.04;64.12
20628;BME280;10473;42.734;24.258;2023-02-19T01:11:11;92017.41;;;5.98;65.71
20628;BME280;10473;42.734;24.258;2023-02-19T01:13:41;92014.59;;;5.91;64.59
20628;BME280;10473;42.734;24.258;2023-02-19T01:16:11;91998.38;;;5.89;64.89
20628;BME280;10473;42.734;24.258;2023-02-19T01:18:41;92003.91;;;5.99;64.99
20628;BME280;10473;42.734;24.258;2023-02-19T01:21:12;92000.56;;;5.87;65.75
20628;BME280;10473;42.734;24.258;2023-02-19T01:23:41;92017.03;;;5.84;65.46
20628;BME280;10473;42.734;24.258;2023-02-19T01:26:13;92016.78;;;5.89;64.81
20628;BME280;10473;42.734;24.258;2023-02-19T01:28:41;92005.91;;;5.90;64.68
20628;BME280;10473;42.734;24.258;2023-02-19T01:31:12;92000.59;;;5.75;65.76
20628;BME280;10473;42.734;24.258;2023-02-19T01:33:44;91999.25;;;5.69;65.90
20628;BME280;10473;42.734;24.258;2023-02-19T01:36:13;92010.88;;;5.80;65.57
20628;BME280;10473;42.734;24.258;2023-02-19T01:38:42;92014.16;;;5.77;65.70
20628;BME280;10473;42.734;24.258;2023-02-19T01:41:11;92014.41;;;5.84;64.57
20628;BME280;10473;42.734;24.258;2023-02-19T01:44:00;91998.88;;;5.43;66.90
20628;BME280;10473;42.734;24.258;2023-02-19T01:46:28;92017.88;;;5.76;65.44
20628;BME280;10473;42.734;24.258;2023-02-19T01:49:02;92005.84;;;5.63;65.85
20628;BME280;10473;42.734;24.258;2023-02-19T01:51:32;92013.50;;;5.68;65.16
20628;BME280;10473;42.734;24.258;2023-02-19T01:54:01;92007.19;;;5.57;65.08
20628;BME280;10473;42.734;24.258;2023-02-19T01:56:32;92008.81;;;5.61;65.34
20628;BME280;10473;42.734;24.258;2023-02-19T01:59:01;92005.66;;;5.56;65.56
20628;BME280;10473;42.734;24.258;2023-02-19T02:01:29;92013.19;;;5.69;64.64
20628;BME280;10473;42.734;24.258;2023-02-19T02:03:57;92010.91;;;5.56;64.55
20628;BME280;10473;42.734;24.258;2023-02-19T02:06:29;92003.53;;;5.61;65.12
20628;BME280;10473;42.734;24.258;2023-02-19T02:08:58;92002.38;;;5.47;65.38
20628;BME280;10473;42.734;24.258;2023-02-19T02:11:46;92007.09;;;5.53;65.55
20628;BME280;10473;42.734;24.258;2023-02-19T02:14:15;92008.25;;;5.68;65.03
20628;BME280;10473;42.734;24.258;2023-02-19T02:16:53;92008.50;;;5.39;66.08
20628;BME280;10473;42.734;24.258;2023-02-19T02:19:31;91992.31;;;5.37;65.81
20628;BME280;10473;42.734;24.258;2023-02-19T02:22:10;91991.25;;;5.26;66.87
20628;BME280;10473;42.734;24.258;2023-02-19T02:24:59;92003.91;;;5.48;66.42
20628;BME280;10473;42.734;24.258;2023-02-19T02:27:40;92011.47;;;5.49;65.84
20628;BME280;10473;42.734;24.258;2023-02-19T02:30:24;92014.56;;;5.27;66.86
20628;BME280;10473;42.734;24.258;2023-02-19T02:33:00;92018.03;;;5.31;66.47
20628;BME280;10473;42.734;24.258;2023-02-19T02:35:37;92013.13;;;5.06;67.22
20628;BME280;10473;42.734;24.258;2023-02-19T02:38:09;92021.56;;;5.23;65.75
20628;BME280;10473;42.734;24.258;2023-02-19T02:40:41;92014.53;;;4.91;67.09
20628;BME280;10473;42.734;24.258;2023-02-19T02:43:11;92013.59;;;5.20;66.90
20628;BME280;10473;42.734;24.258;2023-02-19T02:45:41;92010.19;;;4.83;67.70
20628;BME280;10473;42.734;24.258;2023-02-19T02:48:40;92028.69;;;5.11;67.63
20628;BME280;10473;42.734;24.258;2023-02-19T02:51:16;92020.09;;;4.90;67.03
20628;BME280;10473;42.734;24.258;2023-02-19T02:54:15;92012.91;;;4.87;66.50
20628;BME280;10473;42.734;24.258;2023-02-19T02:57:13;92021.22;;;4.77;67.39
20628;BME280;10473;42.734;24.258;2023-02-19T02:59:51;92027.91;;;4.98;67.40
20628;BME280;10473;42.734;24.258;2023-02-19T03:02:25;92030.19;;;5.00;66.49
20628;BME280;10473;42.734;24.258;2023-02-19T03:04:58;92037.19;;;4.96;67.47
20628;BME280;10473;42.734;24.258;2023-02-19T03:07:51;92030.81;;;4.73;67.55
20628;BME280;10473;42.734;24.258;2023-02-19T03:10:24;92035.84;;;4.90;68.03
20628;BME280;10473;42.734;24.258;2023-02-19T03:12:54;92030.72;;;4.81;67.39
20628;BME280;10473;42.734;24.258;2023-02-19T03:15:57;92032.94;;;5.03;67.26
20628;BME280;10473;42.734;24.258;2023-02-19T03:18:46;92030.41;;;5.07;66.76
20628;BME280;10473;42.734;24.258;2023-02-19T03:21:35;92038.94;;;5.04;65.65
20628;BME280;10473;42.734;24.258;2023-02-19T03:24:09;92042.66;;;4.91;66.36
20628;BME280;10473;42.734;24.258;2023-02-19T03:26:58;92044.41;;;4.99;66.75
20628;BME280;10473;42.734;24.258;2023-02-19T03:29:30;92051.97;;;5.12;66.26
20628;BME280;10473;42.734;24.258;2023-02-19T03:32:08;92045.19;;;4.99;66.92
20628;BME280;10473;42.734;24.258;2023-02-19T03:34:43;92044.44;;;5.11;66.05
20628;BME280;10473;42.734;24.258;2023-02-19T03:37:17;92029.53;;;5.03;67.08
20628;BME280;10473;42.734;24.258;2023-02-19T03:39:47;92045.50;;;5.10;66.07
20628;BME280;10473;42.734;24.258;2023-02-19T03:42:23;92047.47;;;5.01;66.95
20628;BME280;10473;42.734;24.258;2023-02-19T03:45:02;92043.09;;;4.81;67.07
20628;BME280;10473;42.734;24.258;2023-02-19T03:47:41;92037.16;;;4.72;67.46
20628;BME280;10473;42.734;24.258;2023-02-19T03:50:18;92057.22;;;5.00;67.27
20628;BME280;10473;42.734;24.258;2023-02-19T03:52:54;92056.00;;;4.86;67.53
20628;BME280;10473;42.734;24.258;2023-02-19T03:55:27;92052.06;;;5.04;67.12
20628;BME280;10473;42.734;24.258;2023-02-19T03:58:01;92042.13;;;5.09;67.24
20628;BME280;10473;42.734;24.258;2023-02-19T04:00:35;92043.31;;;5.00;66.65
20628;BME280;10473;42.734;24.258;2023-02-19T04:03:10;92055.00;;;5.02;67.24
20628;BME280;10473;42.734;24.258;2023-02-19T04:05:44;92066.28;;;5.03;67.79
20628;BME280;10473;42.734;24.258;2023-02-19T04:08:16;92075.66;;;4.80;68.40
20628;BME280;10473;42.734;24.258;2023-02-19T04:10:52;92070.66;;;4.87;68.12
20628;BME280;10473;42.734;24.258;2023-02-19T04:13:29;92076.66;;;4.87;67.01
20628;BME280;10473;42.734;24.258;2023-02-19T04:16:01;92077.00;;;4.86;67.27
20628;BME280;10473;42.734;24.258;2023-02-19T04:18:33;92076.31;;;4.89;67.72
20628;BME280;10473;42.734;24.258;2023-02-19T04:21:04;92075.69;;;4.92;66.90
20628;BME280;10473;42.734;24.258;2023-02-19T04:23:36;92063.84;;;4.74;66.55
20628;BME280;10473;42.734;24.258;2023-02-19T04:26:06;92074.81;;;4.88;66.89
20628;BME280;10473;42.734;24.258;2023-02-19T04:28:34;92060.97;;;4.67;66.73
20628;BME280;10473;42.734;24.258;2023-02-19T04:31:04;92069.59;;;4.67;67.95
20628;BME280;10473;42.734;24.258;2023-02-19T04:33:32;92075.66;;;4.80;66.86
20628;BME280;10473;42.734;24.258;2023-02-19T04:36:00;92074.81;;;4.88;66.63
20628;BME280;10473;42.734;24.258;2023-02-19T04:38:29;92076.94;;;4.62;68.03
20628;BME280;10473;42.734;24.258;2023-02-19T04:40:57;92079.16;;;4.72;67.16
20628;BME280;10473;42.734;24.258;2023-02-19T04:43:24;92083.06;;;4.66;67.88
20628;BME280;10473;42.734;24.258;2023-02-19T04:45:52;92094.69;;;4.77;66.62
20628;BME280;10473;42.734;24.258;2023-02-19T04:48:19;92092.78;;;4.65;67.23
20628;BME280;10473;42.734;24.258;2023-02-19T04:50:47;92076.06;;;4.70;67.14
20628;BME280;10473;42.734;24.258;2023-02-19T04:53:15;92089.03;;;4.87;67.09
20628;BME280;10473;42.734;24.258;2023-02-19T04:55:44;92093.59;;;4.78;67.47
20628;BME280;10473;42.734;24.258;2023-02-19T04:58:13;92086.56;;;4.70;66.70
20628;BME280;10473;42.734;24.258;2023-02-19T05:00:41;92100.03;;;4.80;66.73
20628;BME280;10473;42.734;24.258;2023-02-19T05:03:08;92086.34;;;4.75;66.38
20628;BME280;10473;42.734;24.258;2023-02-19T05:05:36;92086.66;;;4.61;66.97
20628;BME280;10473;42.734;24.258;2023-02-19T05:08:04;92099.69;;;4.70;67.29
20628;BME280;10473;42.734;24.258;2023-02-19T05:10:32;92106.47;;;4.71;67.61
20628;BME280;10473;42.734;24.258;2023-02-19T05:13:01;92098.19;;;4.81;67.16
20628;BME280;10473;42.734;24.258;2023-02-19T05:15:29;92108.09;;;4.63;67.44
20628;BME280;10473;42.734;24.258;2023-02-19T05:17:56;92094.38;;;4.78;66.77
20628;BME280;10473;42.734;24.258;2023-02-19T05:20:24;92106.72;;;4.78;67.71
20628;BME280;10473;42.734;24.258;2023-02-19T05:22:52;92108.91;;;4.76;67.31
20628;BME280;10473;42.734;24.258;2023-02-19T05:25:20;92104.66;;;4.83;67.67
20628;BME280;10473;42.734;24.258;2023-02-19T05:27:47;92106.53;;;4.95;67.22
20628;BME280;10473;42.734;24.258;2023-02-19T05:30:16;92116.50;;;5.01;66.12
20628;BME280;10473;42.734;24.258;2023-02-19T05:32:44;92100.88;;;4.60;67.34
20628;BME280;10473;42.734;24.258;2023-02-19T05:35:12;92126.66;;;4.91;67.81
20628;BME280;10473;42.734;24.258;2023-02-19T05:37:39;92125.34;;;4.97;67.57
20628;BME280;10473;42.734;24.258;2023-02-19T05:40:08;92132.13;;;4.98;67.30
20628;BME280;10473;42.734;24.258;2023-02-19T05:42:35;92126.78;;;4.94;66.87
20628;BME280;10473;42.734;24.258;2023-02-19T05:45:04;92136.84;;;5.04;67.97
20628;BME280;10473;42.734;24.258;2023-02-19T05:47:33;92137.38;;;4.86;68.07
20628;BME280;10473;42.734;24.258;2023-02-19T05:50:00;92133.56;;;4.95;68.41
20628;BME280;10473;42.734;24.258;2023-02-19T05:52:28;92119.69;;;5.07;67.60
20628;BME280;10473;42.734;24.258;2023-02-19T05:54:56;92142.06;;;5.25;67.57
20628;BME280;10473;42.734;24.258;2023-02-19T05:57:23;92125.50;;;5.24;66.87
20628;BME280;10473;42.734;24.258;2023-02-19T05:59:55;92131.00;;;5.43;66.89
20628;BME280;10473;42.734;24.258;2023-02-19T06:02:23;92142.50;;;5.51;65.83
20628;BME280;10473;42.734;24.258;2023-02-19T06:04:53;92157.16;;;5.64;66.29
20628;BME280;10473;42.734;24.258;2023-02-19T06:07:20;92154.09;;;5.74;65.13
20628;BME280;10473;42.734;24.258;2023-02-19T06:09:49;92155.00;;;6.02;65.35
20628;BME280;10473;42.734;24.258;2023-02-19T06:12:17;92148.88;;;5.98;65.50
20628;BME280;10473;42.734;24.258;2023-02-19T06:14:44;92148.28;;;6.28;65.32
20628;BME280;10473;42.734;24.258;2023-02-19T06:17:12;92155.13;;;6.57;63.62
20628;BME280;10473;42.734;24.258;2023-02-19T06:19:40;92152.31;;;6.77;64.32
20628;BME280;10473;42.734;24.258;2023-02-19T06:22:09;92161.69;;;7.18;64.76
20628;BME280;10473;42.734;24.258;2023-02-19T06:24:37;92164.47;;;7.68;63.67
20628;BME280;10473;42.734;24.258;2023-02-19T06:27:05;92165.09;;;8.11;62.43
20628;BME280;10473;42.734;24.258;2023-02-19T06:29:32;92170.50;;;8.49;60.26
20628;BME280;10473;42.734;24.258;2023-02-19T06:32:03;92177.94;;;8.97;58.94
20628;BME280;10473;42.734;24.258;2023-02-19T06:34:32;92166.13;;;9.33;57.39
20628;BME280;10473;42.734;24.258;2023-02-19T06:37:00;92188.44;;;9.77;56.15
20628;BME280;10473;42.734;24.258;2023-02-19T06:39:29;92190.72;;;10.20;55.23
20628;BME280;10473;42.734;24.258;2023-02-19T06:41:57;92191.09;;;10.44;52.50
20628;BME280;10473;42.734;24.258;2023-02-19T06:44:25;92189.41;;;10.59;51.85
20628;BME280;10473;42.734;24.258;2023-02-19T06:46:53;92194.72;;;10.59;50.22
20628;BME280;10473;42.734;24.258;2023-02-19T06:49:22;92189.13;;;10.67;50.14
20628;BME280;10473;42.734;24.258;2023-02-19T06:51:49;92186.72;;;10.85;50.10
20628;BME280;10473;42.734;24.258;2023-02-19T06:54:17;92182.25;;;10.89;50.02
20628;BME280;10473;42.734;24.258;2023-02-19T06:56:46;92192.31;;;11.06;49.41
20628;BME280;10473;42.734;24.258;2023-02-19T06:59:15;92188.84;;;11.35;48.93
20628;BME280;10473;42.734;24.258;2023-02-19T07:01:43;92190.72;;;11.64;48.19
20628;BME280;10473;42.734;24.258;2023-02-19T07:04:11;92180.34;;;11.85;47.67
20628;BME280;10473;42.734;24.258;2023-02-19T07:06:39;92197.66;;;12.15;47.31
20628;BME280;10473;42.734;24.258;2023-02-19T07:09:09;92198.91;;;12.28;46.20
20628;BME280;10473;42.734;24.258;2023-02-19T07:11:38;92200.50;;;12.36;46.10
20628;BME280;10473;42.734;24.258;2023-02-19T07:14:13;92205.56;;;12.55;45.63
20628;BME280;10473;42.734;24.258;2023-02-19T07:16:41;92212.78;;;12.51;45.30
20628;BME280;10473;42.734;24.258;2023-02-19T07:19:09;92208.69;;;12.17;45.74
20628;BME280;10473;42.734;24.258;2023-02-19T07:21:38;92204.94;;;12.25;45.58
20628;BME280;10473;42.734;24.258;2023-02-19T07:24:08;92204.59;;;11.83;45.98
20628;BME280;10473;42.734;24.258;2023-02-19T07:26:37;92187.72;;;11.65;46.78
20628;BME280;10473;42.734;24.258;2023-02-19T07:29:04;92200.25;;;12.05;46.87
20628;BME280;10473;42.734;24.258;2023-02-19T07:31:34;92202.34;;;12.29;46.46
20628;BME280;10473;42.734;24.258;2023-02-19T07:34:02;92202.84;;;12.45;45.89
20628;BME280;10473;42.734;24.258;2023-02-19T07:36:29;92218.31;;;12.86;46.33
20628;BME280;10473;42.734;24.258;2023-02-19T07:38:58;92217.75;;;13.10;44.46
20628;BME280;10473;42.734;24.258;2023-02-19T07:41:26;92211.00;;;13.34;44.35
20628;BME280;10473;42.734;24.258;2023-02-19T07:43:57;92213.78;;;13.69;43.48
20628;BME280;10473;42.734;24.258;2023-02-19T07:46:25;92218.81;;;13.95;43.04
20628;BME280;10473;42.734;24.258;2023-02-19T07:48:54;92214.34;;;14.55;41.67
20628;BME280;10473;42.734;24.258;2023-02-19T07:51:21;92218.16;;;14.61;40.60
20628;BME280;10473;42.734;24.258;2023-02-19T07:53:49;92216.25;;;14.40;41.50
20628;BME280;10473;42.734;24.258;2023-02-19T07:56:18;92210.53;;;14.38;41.69
20628;BME280;10473;42.734;24.258;2023-02-19T07:58:45;92206.72;;;14.85;41.42
20628;BME280;10473;42.734;24.258;2023-02-19T08:01:15;92216.38;;;15.79;40.54
20628;BME280;10473;42.734;24.258;2023-02-19T08:03:43;92202.09;;;16.10;39.25
20628;BME280;10473;42.734;24.258;2023-02-19T08:06:11;92216.72;;;16.53;38.11
20628;BME280;10473;42.734;24.258;2023-02-19T08:08:39;92219.72;;;17.06;36.84
20628;BME280;10473;42.734;24.258;2023-02-19T08:11:08;92224.00;;;17.37;37.00
20628;BME280;10473;42.734;24.258;2023-02-19T08:13:53;92223.84;;;17.14;36.34
20628;BME280;10473;42.734;24.258;2023-02-19T08:16:21;92219.41;;;17.41;36.51
20628;BME280;10473;42.734;24.258;2023-02-19T08:18:49;92202.91;;;17.42;36.65
20628;BME280;10473;42.734;24.258;2023-02-19T08:21:18;92213.94;;;17.81;35.79
20628;BME280;10473;42.734;24.258;2023-02-19T08:23:46;92225.69;;;17.61;35.54
20628;BME280;10473;42.734;24.258;2023-02-19T08:26:15;92216.63;;;18.11;35.94
20628;BME280;10473;42.734;24.258;2023-02-19T08:28:42;92213.13;;;17.88;35.73
20628;BME280;10473;42.734;24.258;2023-02-19T08:31:10;92219.75;;;18.10;35.31
20628;BME280;10473;42.734;24.258;2023-02-19T08:33:39;92213.25;;;18.87;34.69
20628;BME280;10473;42.734;24.258;2023-02-19T08:36:09;92216.63;;;18.68;33.78
20628;BME280;10473;42.734;24.258;2023-02-19T08:38:38;92219.78;;;18.86;33.76
20628;BME280;10473;42.734;24.258;2023-02-19T08:41:07;92219.00;;;19.54;33.83
20628;BME280;10473;42.734;24.258;2023-02-19T08:43:36;92203.50;;;19.62;34.23
20628;BME280;10473;42.734;24.258;2023-02-19T08:46:04;92229.25;;;20.02;33.61
20628;BME280;10473;42.734;24.258;2023-02-19T08:48:32;92220.06;;;20.54;32.82
20628;BME280;10473;42.734;24.258;2023-02-19T08:51:02;92214.22;;;20.40;31.62
20628;BME280;10473;42.734;24.258;2023-02-19T08:53:31;92201.75;;;20.30;31.76
20628;BME280;10473;42.734;24.258;2023-02-19T08:56:05;92208.84;;;20.91;31.58
20628;BME280;10473;42.734;24.258;2023-02-19T08:58:33;92208.22;;;20.68;31.38
20628;BME280;10473;42.734;24.258;2023-02-19T09:01:02;92210.78;;;20.91;31.74
20628;BME280;10473;42.734;24.258;2023-02-19T09:03:30;92206.63;;;21.02;31.54
20628;BME280;10473;42.734;24.258;2023-02-19T09:05:58;92204.53;;;21.70;31.26
20628;BME280;10473;42.734;24.258;2023-02-19T09:08:25;92205.16;;;22.44;30.79
20628;BME280;10473;42.734;24.258;2023-02-19T09:10:57;92199.88;;;22.53;29.84
20628;BME280;10473;42.734;24.258;2023-02-19T09:13:27;92197.94;;;22.78;29.63
20628;BME280;10473;42.734;24.258;2023-02-19T09:15:55;92198.97;;;23.65;28.74
20628;BME280;10473;42.734;24.258;2023-02-19T09:18:24;92193.47;;;24.11;27.44
20628;BME280;10473;42.734;24.258;2023-02-19T09:20:52;92183.72;;;24.66;27.13
20628;BME280;10473;42.734;24.258;2023-02-19T09:23:20;92200.66;;;25.28;27.28
20628;BME280;10473;42.734;24.258;2023-02-19T09:25:48;92188.34;;;25.63;26.52
20628;BME280;10473;42.734;24.258;2023-02-19T09:28:22;92192.72;;;25.69;26.07
20628;BME280;10473;42.734;24.258;2023-02-19T09:30:51;92188.91;;;25.31;26.41
20628;BME280;10473;42.734;24.258;2023-02-19T09:33:19;92188.34;;;25.63;25.85
20628;BME280;10473;42.734;24.258;2023-02-19T09:35:47;92184.72;;;25.75;26.19
20628;BME280;10473;42.734;24.258;2023-02-19T09:38:15;92184.22;;;26.57;24.97
20628;BME280;10473;42.734;24.258;2023-02-19T09:40:42;92170.19;;;26.41;25.41
20628;BME280;10473;42.734;24.258;2023-02-19T09:43:16;92180.56;;;27.02;25.23
20628;BME280;10473;42.734;24.258;2023-02-19T09:45:45;92162.31;;;26.93;24.64
20628;BME280;10473;42.734;24.258;2023-02-19T09:48:14;92167.41;;;26.08;25.75
20628;BME280;10473;42.734;24.258;2023-02-19T09:50:44;92167.97;;;24.52;27.18
20628;BME280;10473;42.734;24.258;2023-02-19T09:53:17;92156.75;;;24.63;28.40
20628;BME280;10473;42.734;24.258;2023-02-19T09:55:46;92155.00;;;25.53;26.61
20628;BME280;10473;42.734;24.258;2023-02-19T09:58:21;92158.94;;;26.06;26.61
20628;BME280;10473;42.734;24.258;2023-02-19T10:00:54;92154.97;;;26.34;25.86
20628;BME280;10473;42.734;24.258;2023-02-19T10:03:26;92137.78;;;26.10;25.44
20628;BME280;10473;42.734;24.258;2023-02-19T10:05:58;92141.59;;;26.54;25.90
20628;BME280;10473;42.734;24.258;2023-02-19T10:08:31;92145.03;;;25.77;25.65
20628;BME280;10473;42.734;24.258;2023-02-19T10:11:00;92140.28;;;25.05;27.26
20628;BME280;10473;42.734;24.258;2023-02-19T10:13:33;92135.69;;;25.87;27.05
20628;BME280;10473;42.734;24.258;2023-02-19T10:16:04;92135.44;;;24.52;27.53
20628;BME280;10473;42.734;24.258;2023-02-19T10:18:38;92123.63;;;23.42;28.21
20628;BME280;10473;42.734;24.258;2023-02-19T10:21:10;92124.75;;;23.75;28.14
20628;BME280;10473;42.734;24.258;2023-02-19T10:23:39;92119.38;;;24.27;28.23
20628;BME280;10473;42.734;24.258;2023-02-19T10:26:07;92112.25;;;24.51;28.37
20628;BME280;10473;42.734;24.258;2023-02-19T10:28:35;92118.16;;;23.97;28.87
20628;BME280;10473;42.734;24.258;2023-02-19T10:31:06;92105.06;;;23.53;29.31
20628;BME280;10473;42.734;24.258;2023-02-19T10:33:49;92103.25;;;23.16;29.49
20628;BME280;10473;42.734;24.258;2023-02-19T10:36:26;92096.66;;;22.33;30.10
20628;BME280;10473;42.734;24.258;2023-02-19T10:38:55;92098.06;;;21.75;30.77
20628;BME280;10473;42.734;24.258;2023-02-19T10:41:24;92097.38;;;21.71;30.93
20628;BME280;10473;42.734;24.258;2023-02-19T10:43:54;92082.28;;;21.32;31.46
20628;BME280;10473;42.734;24.258;2023-02-19T10:46:26;92080.34;;;21.04;32.11
20628;BME280;10473;42.734;24.258;2023-02-19T10:48:57;92056.47;;;20.74;32.38
20628;BME280;10473;42.734;24.258;2023-02-19T10:51:30;92079.28;;;20.54;33.47
20628;BME280;10473;42.734;24.258;2023-02-19T10:54:06;92055.97;;;19.99;33.28
20628;BME280;10473;42.734;24.258;2023-02-19T10:56:34;92064.53;;;19.94;33.76
20628;BME280;10473;42.734;24.258;2023-02-19T10:59:23;92056.19;;;19.53;34.43
20628;BME280;10473;42.734;24.258;2023-02-19T11:01:55;92057.00;;;19.70;34.54
20628;BME280;10473;42.734;24.258;2023-02-19T11:04:29;92053.53;;;19.69;34.43
20628;BME280;10473;42.734;24.258;2023-02-19T11:07:06;92047.88;;;19.48;35.74
20628;BME280;10473;42.734;24.258;2023-02-19T11:09:37;92041.84;;;20.43;33.57
20628;BME280;10473;42.734;24.258;2023-02-19T11:12:06;92051.56;;;21.14;32.75
20628;BME280;10473;42.734;24.258;2023-02-19T11:14:35;92048.97;;;21.51;31.91
20628;BME280;10473;42.734;24.258;2023-02-19T11:17:03;92045.00;;;21.56;32.03
20628;BME280;10473;42.734;24.258;2023-02-19T11:19:36;92046.38;;;22.14;31.20
20628;BME280;10473;42.734;24.258;2023-02-19T11:22:18;92032.97;;;22.82;30.80
20628;BME280;10473;42.734;24.258;2023-02-19T11:24:48;92045.13;;;22.99;30.85
20628;BME280;10473;42.734;24.258;2023-02-19T11:27:18;92043.50;;;23.01;30.43
20628;BME280;10473;42.734;24.258;2023-02-19T11:29:47;92036.44;;;22.11;31.46
20628;BME280;10473;42.734;24.258;2023-02-19T11:32:27;92038.47;;;22.44;30.81
20628;BME280;10473;42.734;24.258;2023-02-19T11:35:18;92041.19;;;22.07;31.32
20628;BME280;10473;42.734;24.258;2023-02-19T11:37:58;92035.41;;;22.42;31.33
20628;BME280;10473;42.734;24.258;2023-02-19T11:40:39;92029.47;;;22.60;31.17
20628;BME280;10473;42.734;24.258;2023-02-19T11:43:21;92022.00;;;21.51;31.84
20628;BME280;10473;42.734;24.258;2023-02-19T11:45:59;92022.25;;;22.32;31.50
20628;BME280;10473;42.734;24.258;2023-02-19T11:48:58;92015.16;;;22.72;30.06
20628;BME280;10473;42.734;24.258;2023-02-19T11:51:45;92016.34;;;23.05;30.51
20628;BME280;10473;42.734;24.258;2023-02-19T11:54:28;92004.78;;;23.26;28.99
20628;BME280;10473;42.734;24.258;2023-02-19T11:57:05;92010.56;;;22.94;30.34
20628;BME280;10473;42.734;24.258;2023-02-19T11:59:41;91995.59;;;22.34;30.91
20628;BME280;10473;42.734;24.258;2023-02-19T12:02:32;91999.28;;;22.15;30.67
20628;BME280;10473;42.734;24.258;2023-02-19T12:05:25;91972.31;;;22.02;30.74
20628;BME280;10473;42.734;24.258;2023-02-19T12:08:20;91981.38;;;21.96;30.72
20628;BME280;10473;42.734;24.258;2023-02-19T12:11:07;91982.72;;;21.38;31.62
20628;BME280;10473;42.734;24.258;2023-02-19T12:13:50;91973.25;;;21.46;32.07
20628;BME280;10473;42.734;24.258;2023-02-19T12:16:26;91978.13;;;21.51;31.49
20628;BME280;10473;42.734;24.258;2023-02-19T12:19:24;91960.06;;;21.10;31.84
20628;BME280;10473;42.734;24.258;2023-02-19T12:22:21;91960.34;;;21.00;32.00
20628;BME280;10473;42.734;24.258;2023-02-19T12:28:30;91941.44;;;21.28;31.46
20628;BME280;10473;42.734;24.258;2023-02-19T12:31:16;91948.75;;;21.28;32.08
20628;BME280;10473;42.734;24.258;2023-02-19T12:34:08;91924.34;;;20.94;32.58
20628;BME280;10473;42.734;24.258;2023-02-19T12:36:45;91920.81;;;20.68;33.02
20628;BME280;10473;42.734;24.258;2023-02-19T12:39:27;91930.44;;;20.25;33.16
20628;BME280;10473;42.734;24.258;2023-02-19T12:42:07;91928.97;;;20.08;33.22
20628;BME280;10473;42.734;24.258;2023-02-19T12:44:42;91921.03;;;19.85;33.73
20628;BME280;10473;42.734;24.258;2023-02-19T12:47:17;91928.34;;;19.52;34.14
20628;BME280;10473;42.734;24.258;2023-02-19T12:49:49;91921.56;;;19.64;33.88
20628;BME280;10473;42.734;24.258;2023-02-19T12:52:20;91913.63;;;19.25;34.32
20628;BME280;10473;42.734;24.258;2023-02-19T12:54:52;91903.34;;;19.04;34.91
20628;BME280;10473;42.734;24.258;2023-02-19T12:57:23;91907.84;;;18.52;35.75
20628;BME280;10473;42.734;24.258;2023-02-19T12:59:57;91822.41;;;17.92;35.32
20628;BME280;10473;42.734;24.258;2023-02-19T13:02:33;91886.66;;;18.38;35.95
20628;BME280;10473;42.734;24.258;2023-02-19T13:05:14;91889.59;;;18.24;35.66
20628;BME280;10473;42.734;24.258;2023-02-19T13:07:54;91895.75;;;18.44;35.25
20628;BME280;10473;42.734;24.258;2023-02-19T13:10:29;91890.44;;;18.40;35.38
20628;BME280;10473;42.734;24.258;2023-02-19T13:13:03;91875.22;;;18.34;36.13
20628;BME280;10473;42.734;24.258;2023-02-19T13:15:37;91876.28;;;18.40;35.41
20628;BME280;10473;42.734;24.258;2023-02-19T13:18:12;91874.97;;;18.48;34.89
20628;BME280;10473;42.734;24.258;2023-02-19T13:20:42;91864.09;;;18.35;34.83
20628;BME280;10473;42.734;24.258;2023-02-19T13:23:15;91870.16;;;18.39;35.73
20628;BME280;10473;42.734;24.258;2023-02-19T13:26:12;91865.44;;;18.24;34.99